CPX714 Details

Departure: José María Córdova International Airport (SKRG) at 1430 UTC
Arrival: Miami International Airport (KMIA) at 1800 UTC
Route: BUTAL UQ105 KILER UG430 UCA UA301 URSUS FLIPR5
Notes:


Current Weather Information
SKRG 171700Z 11006KT 9999 SCT017TCU BKN080 20/12 A3035 NOSIG RMK TCU/S/W
KMIA 171653Z 14008KT 110V190 10SM SCT035 BKN050 BKN120 BKN250 33/23 A3009 RMK AO2 LTG DSNT NW SLP191 CB DSNT NW T03330228